Terminal Aerodrome Forecast
Issued by NWS Duluth, MN

Home | Current Version | Previous Version | Text Only | Print | Product List | Glossary On
Versions: 1 2 3 4 5 6 7 8 9 10 11 12 13 14 15 16 17 18 19 20 21 22 23 24 25 26 27 28 29 30 31 32 33 34
000
FTUS43 KDLH 200537
TAFDLH
TAF
KDLH 200537Z 2006/2106 30006KT P6SM SCT200
     FM201200 30004KT P6SM BKN140
     FM201500 28006KT P6SM BKN060
     FM202000 26005KT P6SM SCT150=

USA.gov is the U.S. government's official web portal to all federal, state and local government web resources and services.